createdAt,value
2022-12-19T00:01:07.287Z,101649.30
2022-12-19T00:04:12.250Z,101656.57
2022-12-19T00:07:13.999Z,101652.12
2022-12-19T00:10:15.948Z,101647.73
2022-12-19T00:13:17.572Z,101643.94
2022-12-19T00:16:21.894Z,101636.30
2022-12-19T00:19:23.566Z,101634.02
2022-12-19T00:22:25.247Z,101640.39
2022-12-19T00:25:26.996Z,101636.48
2022-12-19T00:28:29.576Z,101634.50
2022-12-19T00:31:33.892Z,101637.56
2022-12-19T00:34:35.767Z,101638.08
2022-12-19T00:37:37.476Z,101640.98
2022-12-19T00:40:42.567Z,101637.39
2022-12-19T00:43:44.979Z,101637.85
2022-12-19T00:46:52.702Z,101639.25
2022-12-19T00:49:54.867Z,101640.68
2022-12-19T00:52:56.623Z,101647.41
2022-12-19T00:56:04.828Z,101650.33
2022-12-19T00:59:06.600Z,101643.88
2022-12-19T01:02:08.436Z,101644.23
2022-12-19T01:05:10.371Z,101644.65
2022-12-19T01:08:12.055Z,101641.98
2022-12-19T01:11:13.754Z,101632.19
2022-12-19T01:14:22.297Z,101628.31
2022-12-19T01:17:24.420Z,101626.26
2022-12-19T01:20:29.902Z,101617.30
2022-12-19T01:23:32.114Z,101616.61
2022-12-19T01:26:34.682Z,101616.65
2022-12-19T01:29:37.198Z,101613.08
2022-12-19T01:32:50.191Z,101608.81
2022-12-19T01:35:51.908Z,101599.40
2022-12-19T01:38:57.385Z,101583.03
2022-12-19T01:41:59.112Z,101580.95
2022-12-19T01:45:13.553Z,101572.48
2022-12-19T01:48:19.303Z,101567.39
2022-12-19T01:51:24.517Z,101567.77
2022-12-19T01:54:35.320Z,101570.36
2022-12-19T01:57:38.000Z,101575.51
2022-12-19T02:00:42.498Z,101570.56
2022-12-19T02:03:45.242Z,101559.55
2022-12-19T02:06:47.365Z,101558.05
2022-12-19T02:09:56.961Z,101550.95
2022-12-19T02:12:59.785Z,101537.13
2022-12-19T02:16:24.580Z,101531.17
2022-12-19T02:19:49.924Z,101522.30
2022-12-19T02:23:00.585Z,101516.58
2022-12-19T02:26:24.297Z,101517.88
2022-12-19T02:29:34.356Z,101519.61
2022-12-19T02:32:58.302Z,101526.27
2022-12-19T02:36:08.584Z,101518.71
2022-12-19T02:39:30.605Z,101508.25
2022-12-19T02:42:39.364Z,101509.17
2022-12-19T02:45:42.611Z,101503.02
2022-12-19T02:48:44.736Z,101503.45
2022-12-19T02:51:46.514Z,101503.45
2022-12-19T02:54:50.280Z,101510.11
2022-12-19T02:58:20.392Z,101511.02
2022-12-19T03:01:41.034Z,101505.02
2022-12-19T03:04:54.773Z,101499.45
2022-12-19T03:08:04.139Z,101500.08
2022-12-19T03:11:13.451Z,101495.13
2022-12-19T03:14:19.323Z,101480.58
2022-12-19T03:17:21.218Z,101469.83
2022-12-19T03:20:26.537Z,101465.70
2022-12-19T03:23:29.267Z,101457.42
2022-12-19T03:27:00.361Z,101453.91
2022-12-19T03:30:06.992Z,101451.34
2022-12-19T03:33:10.246Z,101453.54
2022-12-19T03:36:16.651Z,101453.24
2022-12-19T03:39:19.707Z,101451.43
2022-12-19T03:42:42.213Z,101451.34
2022-12-19T03:45:58.216Z,101459.45
2022-12-19T03:48:59.913Z,101461.58
2022-12-19T03:52:19.685Z,101460.25
2022-12-19T03:55:35.859Z,101451.91
2022-12-19T03:58:40.389Z,101452.71
2022-12-19T04:01:42.599Z,101459.67
2022-12-19T04:04:46.723Z,101461.91
2022-12-19T04:07:50.156Z,101463.55
2022-12-19T04:10:55.925Z,101469.01
2022-12-19T04:14:04.587Z,101467.44
2022-12-19T04:17:18.156Z,101467.56
2022-12-19T04:20:21.509Z,101467.15
2022-12-19T04:23:29.314Z,101471.53
2022-12-19T04:26:31.765Z,101479.60
2022-12-19T04:29:35.860Z,101476.04
2022-12-19T04:32:37.905Z,101471.54
2022-12-19T04:35:39.787Z,101474.77
2022-12-19T04:38:41.643Z,101485.59
2022-12-19T04:41:43.404Z,101487.17
2022-12-19T04:44:45.215Z,101471.95
2022-12-19T04:47:46.932Z,101470.27
2022-12-19T04:50:48.560Z,101467.15
2022-12-19T04:53:50.333Z,101465.70
2022-12-19T04:56:53.409Z,101459.62
2022-12-19T04:59:55.050Z,101454.88
2022-12-19T05:02:56.926Z,101445.42
2022-12-19T05:06:11.326Z,101443.55
2022-12-19T05:09:13.161Z,101425.30
2022-12-19T05:12:14.895Z,101419.34
2022-12-19T05:15:17.280Z,101419.64
2022-12-19T05:18:18.924Z,101424.64
2022-12-19T05:21:21.483Z,101429.55
2022-12-19T05:24:23.415Z,101427.62
2022-12-19T05:27:25.133Z,101432.39
2022-12-19T05:30:27.399Z,101434.46
2022-12-19T05:33:29.056Z,101424.94
2022-12-19T05:36:32.655Z,101422.17
2022-12-19T05:39:35.143Z,101415.19
2022-12-19T05:42:36.947Z,101416.81
2022-12-19T05:45:40.131Z,101418.88
2022-12-19T05:48:41.793Z,101416.41
2022-12-19T05:51:43.710Z,101420.11
2022-12-19T05:54:45.885Z,101418.99
2022-12-19T05:57:47.815Z,101426.11
2022-12-19T06:00:49.618Z,101428.89
2022-12-19T06:03:52.398Z,101423.68
2022-12-19T06:06:54.082Z,101423.41
2022-12-19T06:09:56.167Z,101424.76
2022-12-19T06:12:57.757Z,101423.67
2022-12-19T06:16:07.228Z,101418.30
2022-12-19T06:19:09.123Z,101412.19
2022-12-19T06:22:12.268Z,101401.02
2022-12-19T06:25:14.007Z,101402.80
2022-12-19T06:28:15.874Z,101409.69
2022-12-19T06:31:19.209Z,101404.30
2022-12-19T06:34:47.022Z,101402.73
2022-12-19T06:37:42.711Z,101404.32
2022-12-19T06:41:03.239Z,101408.39
2022-12-19T06:44:07.654Z,101412.98
2022-12-19T06:47:10.284Z,101411.45
2022-12-19T06:50:11.831Z,101415.65
2022-12-19T06:53:13.627Z,101417.41
2022-12-19T06:56:16.879Z,101410.71
2022-12-19T06:59:18.593Z,101408.44
2022-12-19T07:02:22.311Z,101398.59
2022-12-19T07:05:24.549Z,101394.30
2022-12-19T07:08:29.795Z,101388.02
2022-12-19T07:11:31.500Z,101382.98
2022-12-19T07:14:33.473Z,101388.09
2022-12-19T07:17:36.302Z,101392.56
2022-12-19T07:20:44.826Z,101400.69
2022-12-19T07:23:46.863Z,101397.23
2022-12-19T07:26:48.608Z,101390.55
2022-12-19T07:29:50.399Z,101379.20
2022-12-19T07:32:52.053Z,101370.21
2022-12-19T07:35:53.651Z,101372.37
2022-12-19T07:38:55.348Z,101372.76
2022-12-19T07:41:57.001Z,101370.85
2022-12-19T07:44:58.563Z,101357.48
2022-12-19T07:48:01.190Z,101360.94
2022-12-19T07:51:02.959Z,101365.66
2022-12-19T07:54:05.829Z,101376.24
2022-12-19T07:57:08.101Z,101374.36
2022-12-19T08:00:10.439Z,101375.79
2022-12-19T08:03:12.623Z,101379.40
2022-12-19T08:06:14.532Z,101373.34
2022-12-19T08:09:16.328Z,101369.69
2022-12-19T08:12:17.989Z,101366.32
2022-12-19T08:15:19.616Z,101367.48
2022-12-19T08:18:21.302Z,101376.98
2022-12-19T08:21:23.115Z,101372.55
2022-12-19T08:24:26.841Z,101362.83
2022-12-19T08:27:29.747Z,101358.10
2022-12-19T08:30:31.422Z,101354.73
2022-12-19T08:33:33.418Z,101359.91
2022-12-19T08:36:35.115Z,101357.31
2022-12-19T08:39:37.339Z,101362.27
2022-12-19T08:42:39.310Z,101359.30
2022-12-19T08:45:41.112Z,101359.04
2022-12-19T08:48:42.828Z,101359.98
2022-12-19T08:51:44.597Z,101353.45
2022-12-19T08:54:46.465Z,101343.90
2022-12-19T08:57:48.507Z,101341.11
2022-12-19T09:00:55.511Z,101327.88
2022-12-19T09:05:17.853Z,101321.63
2022-12-19T09:07:21.935Z,101315.34
2022-12-19T09:10:23.805Z,101313.30
2022-12-19T09:13:26.219Z,101303.98
2022-12-19T09:16:28.943Z,101295.81
2022-12-19T09:19:30.940Z,101293.34
2022-12-19T09:22:32.679Z,101296.89
2022-12-19T09:25:34.421Z,101291.48
2022-12-19T09:28:37.730Z,101288.23
2022-12-19T09:31:39.387Z,101286.91
2022-12-19T09:34:41.070Z,101284.65
2022-12-19T09:37:42.865Z,101282.94
2022-12-19T09:40:55.169Z,101284.59
2022-12-19T09:44:16.247Z,101291.45
2022-12-19T09:47:23.233Z,101278.02
2022-12-19T09:50:52.639Z,101262.73
2022-12-19T09:54:23.599Z,101255.83
2022-12-19T09:57:48.458Z,101237.95
2022-12-19T10:01:00.226Z,101225.11
2022-12-19T10:04:12.161Z,101226.20
2022-12-19T10:07:33.155Z,101231.63
2022-12-19T10:12:39.583Z,101236.65
2022-12-19T10:15:03.518Z,101230.77
2022-12-19T10:18:15.534Z,101229.92
2022-12-19T10:22:16.204Z,101239.55
2022-12-19T10:25:26.243Z,101237.45
2022-12-19T10:28:35.111Z,101236.30
2022-12-19T10:31:41.614Z,101226.53
2022-12-19T10:34:45.452Z,101212.84
2022-12-19T10:38:05.758Z,101200.56
2022-12-19T10:41:15.898Z,101192.02
2022-12-19T10:44:18.538Z,101187.33
2022-12-19T10:47:20.333Z,101189.02
2022-12-19T10:50:23.423Z,101187.53
2022-12-19T10:53:29.811Z,101190.16
2022-12-19T10:56:37.407Z,101196.73
2022-12-19T10:59:39.830Z,101192.86
2022-12-19T11:02:46.129Z,101185.35
2022-12-19T11:05:58.387Z,101190.52
2022-12-19T11:09:21.149Z,101190.36
2022-12-19T11:16:09.512Z,101183.23
2022-12-19T11:20:11.573Z,101174.63
2022-12-19T11:29:18.092Z,101168.07
2022-12-19T11:29:34.803Z,101149.84
2022-12-19T11:30:38.646Z,101145.88
2022-12-19T11:33:17.809Z,101126.30
2022-12-19T11:36:39.674Z,101134.27
2022-12-19T11:39:48.430Z,101126.77
2022-12-19T11:43:25.463Z,101122.92
2022-12-19T11:46:40.369Z,101118.23
2022-12-19T11:49:46.344Z,101118.68
2022-12-19T11:53:14.702Z,101114.24
2022-12-19T11:56:21.123Z,101116.54
2022-12-19T11:59:36.232Z,101114.84
2022-12-19T12:02:52.609Z,101112.07
2022-12-19T12:05:56.646Z,101106.33
2022-12-19T12:10:43.603Z,101104.46
2022-12-19T12:22:47.337Z,101089.44
2022-12-19T12:30:07.344Z,101068.30
2022-12-19T12:31:12.277Z,101069.53
2022-12-19T12:31:14.531Z,101075.13
2022-12-19T12:31:49.678Z,101074.34
2022-12-19T12:35:28.680Z,101070.95
2022-12-19T12:35:28.788Z,101075.59
2022-12-19T12:38:44.839Z,101057.56
2022-12-19T12:42:03.847Z,101061.96
2022-12-19T12:45:20.456Z,101046.91
2022-12-19T12:48:39.044Z,101035.95
2022-12-19T12:51:41.334Z,101034.21
2022-12-19T12:54:44.724Z,101041.68
2022-12-19T12:57:46.481Z,101039.90
2022-12-19T13:01:09.225Z,101038.91
2022-12-19T13:04:11.076Z,101033.43
2022-12-19T13:07:35.041Z,101027.42
2022-12-19T13:10:54.227Z,101022.78
2022-12-19T13:13:58.474Z,101024.30
2022-12-19T13:17:04.755Z,101022.93
2022-12-19T13:20:06.483Z,101020.30
2022-12-19T13:23:34.139Z,101014.25
2022-12-19T13:26:51.344Z,101007.68
2022-12-19T13:30:12.588Z,101007.23
2022-12-19T13:33:15.823Z,101004.69
2022-12-19T13:39:50.342Z,101000.61
2022-12-19T13:40:22.533Z,100998.79
2022-12-19T13:43:47.542Z,100997.16
2022-12-19T13:46:49.777Z,100992.33
2022-12-19T13:49:52.388Z,100994.78
2022-12-19T13:52:54.307Z,100996.02
2022-12-19T13:56:26.149Z,100996.30
2022-12-19T13:59:33.439Z,100992.94
2022-12-19T14:02:45.344Z,100996.36
2022-12-19T14:06:18.689Z,100995.28
2022-12-19T14:11:26.230Z,100988.78
2022-12-19T14:13:48.394Z,100983.41
2022-12-19T14:16:44.162Z,100970.08
2022-12-19T14:19:49.863Z,100971.49
2022-12-19T14:22:59.558Z,100967.39
2022-12-19T14:28:17.738Z,100957.61
2022-12-19T14:29:45.056Z,100954.20
2022-12-19T14:33:47.424Z,100963.81
2022-12-19T14:36:17.472Z,100966.59
2022-12-19T14:39:42.033Z,100956.62
2022-12-19T14:43:57.345Z,100947.26
2022-12-19T14:53:52.227Z,100945.31
2022-12-19T14:54:00.885Z,100944.60
2022-12-19T14:54:50.269Z,100934.86
2022-12-19T14:56:59.880Z,100929.21
2022-12-19T15:00:50.949Z,100919.48
2022-12-19T15:04:33.745Z,100926.15
2022-12-19T15:07:25.890Z,100928.11
2022-12-19T15:11:08.584Z,100922.64
2022-12-19T15:14:52.682Z,100920.61
2022-12-19T15:17:22.555Z,100923.54
2022-12-19T15:20:24.254Z,100920.14
2022-12-19T15:23:26.930Z,100917.33
2022-12-19T15:26:31.263Z,100910.23
2022-12-19T15:29:33.627Z,100903.20
2022-12-19T15:32:35.373Z,100893.55
2022-12-19T15:35:37.083Z,100886.30
2022-12-19T15:38:38.706Z,100883.39
2022-12-19T15:41:41.761Z,100880.79
2022-12-19T15:44:44.662Z,100877.27
2022-12-19T15:47:48.175Z,100880.10
2022-12-19T15:50:49.800Z,100867.54
2022-12-19T15:53:51.557Z,100861.30
2022-12-19T15:56:54.631Z,100859.11
2022-12-19T15:59:58.284Z,100858.13
2022-12-19T16:06:21.932Z,100863.85
2022-12-19T16:09:26.982Z,100862.31
2022-12-19T16:12:37.832Z,100863.02
2022-12-19T16:15:40.163Z,100858.55
2022-12-19T16:18:42.710Z,100855.39
2022-12-19T16:21:45.092Z,100851.30
2022-12-19T16:24:47.104Z,100840.20
2022-12-19T16:27:56.453Z,100839.54
2022-12-19T16:30:59.393Z,100837.75
2022-12-19T16:34:02.491Z,100837.38
2022-12-19T16:37:04.352Z,100837.38
2022-12-19T16:40:07.113Z,100831.80
2022-12-19T16:43:27.128Z,100830.06
2022-12-19T16:46:31.055Z,100824.95
2022-12-19T16:49:33.054Z,100820.54
2022-12-19T16:52:40.614Z,100816.84
2022-12-19T16:55:45.814Z,100809.36
2022-12-19T16:58:47.608Z,100801.84
2022-12-19T17:01:49.552Z,100796.13
2022-12-19T17:04:54.140Z,100792.20
2022-12-19T17:07:56.531Z,100797.86
2022-12-19T17:10:58.708Z,100800.31
2022-12-19T17:14:08.667Z,100801.20
2022-12-19T17:17:14.312Z,100798.60
2022-12-19T17:20:20.738Z,100791.58
2022-12-19T17:23:24.084Z,100783.34
2022-12-19T17:26:25.946Z,100785.99
2022-12-19T17:29:27.636Z,100786.48
2022-12-19T17:32:29.527Z,100783.77
2022-12-19T17:35:35.366Z,100774.17
2022-12-19T17:38:37.227Z,100772.45
2022-12-19T17:41:38.854Z,100773.34
2022-12-19T17:44:40.536Z,100769.48
2022-12-19T17:47:42.633Z,100774.13
2022-12-19T17:50:44.321Z,100769.48
2022-12-19T17:53:46.189Z,100769.72
2022-12-19T17:56:49.930Z,100768.84
2022-12-19T17:59:51.657Z,100768.17
2022-12-19T18:02:55.260Z,100767.23
2022-12-19T18:05:58.159Z,100760.04
2022-12-19T18:09:02.696Z,100759.55
2022-12-19T18:12:04.691Z,100757.13
2022-12-19T18:15:06.854Z,100759.94
2022-12-19T18:18:25.467Z,100758.36
2022-12-19T18:21:27.109Z,100753.45
2022-12-19T18:24:28.821Z,100750.29
2022-12-19T18:27:32.143Z,100754.79
2022-12-19T18:30:34.005Z,100750.63
2022-12-19T18:33:38.635Z,100753.02
2022-12-19T18:36:42.375Z,100748.06
2022-12-19T18:39:44.080Z,100739.45
2022-12-19T18:42:46.129Z,100736.80
2022-12-19T18:45:51.700Z,100735.04
2022-12-19T18:48:53.469Z,100727.42
2022-12-19T18:51:57.297Z,100723.20
2022-12-19T18:54:58.968Z,100722.27
2022-12-19T18:58:00.734Z,100718.36
2022-12-19T19:01:02.860Z,100716.09
2022-12-19T19:04:05.174Z,100712.63
2022-12-19T19:07:10.126Z,100713.77
2022-12-19T19:10:32.051Z,100709.23
2022-12-19T19:13:33.904Z,100707.60
2022-12-19T19:16:36.802Z,100712.07
2022-12-19T19:19:38.486Z,100707.49
2022-12-19T19:22:40.443Z,100700.54
2022-12-19T19:25:42.270Z,100694.70
2022-12-19T19:28:50.295Z,100692.86
2022-12-19T19:31:53.782Z,100681.38
2022-12-19T19:34:55.888Z,100683.06
2022-12-19T19:38:00.520Z,100678.91
2022-12-19T19:41:02.361Z,100675.40
2022-12-19T19:44:03.985Z,100672.67
2022-12-19T19:47:05.711Z,100672.02
2022-12-19T19:50:07.852Z,100671.58
2022-12-19T19:53:09.700Z,100669.16
2022-12-19T19:56:11.799Z,100667.81
2022-12-19T19:59:13.592Z,100662.73
2022-12-19T20:02:16.877Z,100662.79
2022-12-19T20:05:19.012Z,100670.17
2022-12-19T20:08:20.576Z,100676.17
2022-12-19T20:11:22.386Z,100668.89
2022-12-19T20:14:24.088Z,100662.60
2022-12-19T20:17:25.958Z,100662.83
2022-12-19T20:20:27.751Z,100666.95
2022-12-19T20:23:29.530Z,100664.09
2022-12-19T20:26:31.230Z,100663.59
2022-12-19T20:29:32.880Z,100659.41
2022-12-19T20:32:34.705Z,100655.27
2022-12-19T20:35:37.134Z,100654.46
2022-12-19T20:38:39.116Z,100655.30
2022-12-19T20:41:40.875Z,100650.62
2022-12-19T20:44:42.677Z,100650.50
2022-12-19T20:47:44.231Z,100648.16
2022-12-19T20:50:45.870Z,100641.13
2022-12-19T20:53:48.370Z,100640.27
2022-12-19T20:56:50.066Z,100636.55
2022-12-19T20:59:52.529Z,100639.10
2022-12-19T21:06:19.910Z,100621.55
2022-12-19T21:09:21.591Z,100617.39
2022-12-19T21:12:23.267Z,100616.97
2022-12-19T21:15:25.401Z,100622.17
2022-12-19T21:18:27.753Z,100618.10
2022-12-19T21:21:29.979Z,100616.23
2022-12-19T21:24:33.433Z,100610.75
2022-12-19T21:27:35.182Z,100612.98
2022-12-19T21:30:37.421Z,100614.01
2022-12-19T21:33:39.112Z,100604.09
2022-12-19T21:36:40.955Z,100597.46
2022-12-19T21:39:42.540Z,100597.76
2022-12-19T21:42:44.304Z,100591.02
2022-12-19T21:45:46.004Z,100583.56
2022-12-19T21:48:49.326Z,100585.77
2022-12-19T21:51:51.357Z,100586.82
2022-12-19T21:54:53.117Z,100582.92
2022-12-19T21:57:54.814Z,100582.38
2022-12-19T22:01:08.511Z,100574.79
2022-12-19T22:04:22.422Z,100568.76
2022-12-19T22:07:24.228Z,100570.33
2022-12-19T22:10:25.912Z,100562.35
2022-12-19T22:13:28.420Z,100558.08
2022-12-19T22:16:30.211Z,100553.37
2022-12-19T22:19:31.890Z,100551.77
2022-12-19T22:22:33.677Z,100539.86
2022-12-19T22:25:35.464Z,100535.38
2022-12-19T22:28:38.163Z,100534.55
2022-12-19T22:31:41.006Z,100535.13
2022-12-19T22:34:42.920Z,100527.33
2022-12-19T22:37:44.799Z,100529.76
2022-12-19T22:40:46.667Z,100523.19
2022-12-19T22:43:48.807Z,100524.98
2022-12-19T22:46:51.276Z,100517.64
2022-12-19T22:49:53.162Z,100516.25
2022-12-19T22:52:54.809Z,100512.11
2022-12-19T22:55:56.613Z,100509.29
2022-12-19T22:59:03.417Z,100512.83
2022-12-19T23:02:05.430Z,100510.98
2022-12-19T23:05:07.991Z,100511.39
2022-12-19T23:08:09.688Z,100511.54
2022-12-19T23:11:15.284Z,100509.89
2022-12-19T23:14:18.343Z,100505.42
2022-12-19T23:17:20.284Z,100506.88
2022-12-19T23:20:21.822Z,100500.64
2022-12-19T23:23:23.919Z,100503.76
2022-12-19T23:26:33.674Z,100491.91
2022-12-19T23:29:35.444Z,100493.55
2022-12-19T23:32:37.241Z,100493.50
2022-12-19T23:35:38.897Z,100488.71
2022-12-19T23:38:42.377Z,100483.41
2022-12-19T23:41:44.211Z,100484.14
2022-12-19T23:44:46.214Z,100476.42
2022-12-19T23:47:48.638Z,100476.89
2022-12-19T23:50:57.940Z,100473.21
2022-12-19T23:53:59.663Z,100474.05
2022-12-19T23:57:01.351Z,100471.70
